Skip Navigation Links
NOAA logo - Click to go to the NOAA homepage
NOAA's National Weather Service
Alaska Aviation Weather Unit
  NWS logo - Click to go to the NWS homepage
Left Navbar Graphic     22 AKDT = 06 GMT

   
NOAA is celebrating 200 years of science, service, and stewardship. Visit the NOAA 200th celebration Web site to learn more.
USA.gov is the U.S. Government's official Web portal to all Federal, state and local government Web resources and services.
Facebook
NWS on Facebook

Important Change Regarding the AAWU Web Presence

 

Over the last several months, the AAWU has been working to navigate its webpages to a nationally supported server. Security, as well as other needs, have necessitated the change.  We have been given an extension for the site changeover while we diligently work at addressing feedback received. As of July 14, 2017, aawu.arh.noaa.gov will be discontinued. The new AAWU web address is weather.gov/aawu. It is now live and will run in-parallel with the old site until it is discontinued on July 14, 2017. Please continue to send any feedback or questions regarding the new webpages to nws.ar.aawu.webauthors@noaa.gov.  Thank you for your patience during this time of transition.
AAWU Home :: Display TAF Add Bookmark
TAF CYXY 260538Z 2606/2706 15010KT P6SM SCT070 BKN150
      TEMPO 2608/2706 BKN070 RMK
      NXT FCST BY 261200Z=

METAR CYXY 260000Z 14009G16KT 40SM FEW055TCU FEW140 BKN230 24/07 A2983 RMK TCU1AC1CI5 SLP115 DENSITY ALT 4000FT= CYXY 260100Z 14009G17KT 40SM FEW055TCU SCT140 BKN230 23/07 A2982 RMK TCU1AC2CI4 OBS TKN+8 SLP113 DENSITY ALT 3900FT= METAR CYXY 260200Z 15012KT 40SM FEW055TCU SCT160 BKN220 23/06 A2981 RMK TCU1AC3CI3 SLP107 DENSITY ALT 3900FT= METAR CYXY 260300Z 15012G17KT 40SM FEW055TCU SCT160 BKN220 21/07 A2981 RMK TCU1AC3CI3 SLP106 DENSITY ALT 3700FT= METAR CYXY 260400Z 14011KT 40SM FEW055TCU SCT160 BKN220 18/06 A2981 RMK TCU1AC3CI3 SLP110 DENSITY ALT 3400FT= METAR CYXY 260500Z 13006KT 080V160 40SM FEW090 SCT150 BKN220 17/05 A2982 RMK AC2AC2CI3 SLP111 DENSITY ALT 3200FT= METAR CYXY 260600Z 14011G16KT 40SM FEW140 BKN200 15/05 A2983 RMK AC2CI5 SLP114 DENSITY ALT 3000FT=
 Alaska TAF Map

NOAA's National Weather Service
Alaska Aviation Weather Unit
6930 Sand Lake Road
Anchorage, AK 99502-1845
Disclaimer
Credits
Glossary
Privacy Policy
About Us
Career Opportunities
Contact AAWU Internet Services Site last modified: April, 17th 2012